Time;durP1;ratioP1;P1;durP2;ratioP2;P2;SDS_P1;SDS_P2;PMS_P1;PMS_P2;Temp;Humidity;BMP_temperature;BMP_pressure;BME280_temperature;BME280_humidity;BME280_pressure;Samples;Min_cycle;Max_cycle;Signal;HPM_P1;HPM_P2
2023/03/05 00:01:38;;;;;;;17.43;3.07;;;;;;;-144.73;82.12;54407.69;4977749;28;20044;-74
2023/03/05 00:04:06;;;;;;;18.93;3.40;;;;;;;-144.73;81.57;54461.06;4983223;28;20022;-74
2023/03/05 00:06:32;;;;;;;27.52;3.20;;;;;;;-144.73;81.54;54481.59;4991977;28;20026;-74
2023/03/05 00:08:58;;;;;;;16.27;2.67;;;;;;;-144.73;81.02;54465.16;4982966;28;20050;-75
2023/03/05 00:11:28;;;;;;;22.63;2.88;;;;;;;-144.73;80.94;54459.00;4974745;28;20034;-74
2023/03/05 00:13:54;;;;;;;22.70;2.80;;;;;;;-144.73;80.04;54465.16;4991987;28;20025;-74
2023/03/05 00:16:21;;;;;;;24.85;2.58;;;;;;;-144.73;79.95;54428.22;4975145;28;20411;-74
2023/03/05 00:18:48;;;;;;;22.00;3.00;;;;;;;-144.73;79.47;54411.81;4974731;28;20018;-74
2023/03/05 00:21:23;;;;;;;10.97;1.87;;;;;;;-144.73;78.92;54450.81;4976706;28;20034;-74
2023/03/05 00:23:49;;;;;;;25.47;2.67;;;;;;;-144.73;79.01;54448.75;4988298;28;20096;-74
2023/03/05 00:26:16;;;;;;;18.70;2.20;;;;;;;-144.73;78.78;54426.16;4967820;28;20023;-74
2023/03/05 00:28:42;;;;;;;26.33;2.73;;;;;;;-144.73;78.40;54444.66;4992240;28;20022;-74
2023/03/05 00:31:07;;;;;;;17.52;2.08;;;;;;;-144.73;78.00;54448.75;4976911;28;20525;-74
2023/03/05 00:33:33;;;;;;;15.75;2.05;;;;;;;-144.73;77.51;54452.84;4974420;28;20010;-74
2023/03/05 00:36:01;;;;;;;19.58;2.22;;;;;;;-144.73;76.71;54428.22;4974633;28;20038;-74
2023/03/05 00:38:26;;;;;;;17.58;2.70;;;;;;;-144.73;77.32;54444.66;4975227;28;20487;-74
2023/03/05 00:40:52;;;;;;;24.63;2.93;;;;;;;-144.73;77.17;54454.91;4974032;28;20065;-75
2023/03/05 00:43:17;;;;;;;15.80;2.20;;;;;;;-144.73;77.99;54459.00;4975613;28;20117;-74
2023/03/05 00:45:42;;;;;;;18.57;1.97;;;;;;;-144.73;78.81;54493.91;4977199;28;20089;-74
2023/03/05 00:48:08;;;;;;;12.53;1.73;;;;;;;-144.73;79.21;54487.75;4982296;28;20030;-74
2023/03/05 00:50:33;;;;;;;16.47;2.27;;;;;;;-144.73;80.50;54448.75;4973522;28;20030;-74
2023/03/05 00:52:59;;;;;;;22.40;3.90;;;;;;;-144.73;83.46;54428.22;4974279;28;20039;-74
2023/03/05 00:55:24;;;;;;;11.23;2.33;;;;;;;-144.73;85.65;54448.75;4983624;28;20125;-74
2023/03/05 00:57:50;;;;;;;21.50;2.57;;;;;;;-144.73;86.30;54432.31;4990490;28;20031;-74
2023/03/05 01:00:16;;;;;;;17.47;3.20;;;;;;;-144.73;86.74;54436.44;4980607;28;20057;-74
2023/03/05 01:02:41;;;;;;;21.33;3.30;;;;;;;-144.73;87.68;54454.91;4974576;28;20026;-74
2023/03/05 01:05:20;;;;;;;18.00;3.00;;;;;;;-144.73;87.87;54415.91;4991917;28;20022;-74
2023/03/05 01:07:46;;;;;;;22.60;2.77;;;;;;;-144.73;88.53;54448.75;4991107;28;20046;-74
2023/03/05 01:10:12;;;;;;;16.57;2.90;;;;;;;-144.73;89.74;54440.53;4991676;28;20022;-74
2023/03/05 01:12:38;;;;;;;18.77;2.97;;;;;;;-144.73;91.60;54440.53;4977512;28;20368;-74
2023/03/05 01:15:04;;;;;;;23.97;3.20;;;;;;;-144.73;93.46;54456.97;4982791;28;20033;-74
2023/03/05 01:17:29;;;;;;;24.13;3.07;;;;;;;-144.73;94.53;54432.31;4982208;28;20054;-73
2023/03/05 01:19:54;;;;;;;20.70;2.80;;;;;;;-144.73;94.87;54452.84;4976290;28;20022;-76
2023/03/05 01:22:20;;;;;;;19.23;3.13;;;;;;;-144.73;95.17;54428.22;4973793;28;20507;-75
2023/03/05 01:24:45;;;;;;;30.77;3.10;;;;;;;-144.73;95.33;54461.06;4978794;28;20023;-75
2023/03/05 01:27:10;;;;;;;23.27;2.83;;;;;;;-144.73;95.09;54467.22;4981920;28;20027;-75
2023/03/05 01:29:36;;;;;;;21.97;3.17;;;;;;;-144.73;95.89;54424.13;4978809;28;20038;-74
2023/03/05 01:32:02;;;;;;;14.50;2.57;;;;;;;-144.73;95.24;54422.06;4974031;28;20030;-75
2023/03/05 01:34:27;;;;;;;29.57;4.03;;;;;;;-144.73;95.89;54456.97;4974381;28;20021;-75
2023/03/05 01:36:52;;;;;;;15.03;2.57;;;;;;;-144.73;95.85;54461.06;4995373;28;20031;-75
2023/03/05 01:39:18;;;;;;;19.67;3.50;;;;;;;-144.73;95.72;54448.75;4979491;28;20022;-75
2023/03/05 01:41:43;;;;;;;21.53;3.43;;;;;;;-144.73;95.74;54436.44;4993844;28;20041;-75
2023/03/05 01:44:21;;;;;;;23.13;3.60;;;;;;;-144.73;96.92;54477.47;4994078;28;20061;-75
2023/03/05 01:46:47;;;;;;;21.43;3.43;;;;;;;-144.73;98.08;54448.75;4989262;28;20060;-74
2023/03/05 01:49:23;;;;;;;22.70;4.30;;;;;;;-144.73;98.62;54452.84;4977928;28;20030;-75
2023/03/05 01:52:06;;;;;;;25.07;5.17;;;;;;;-144.73;99.62;54411.81;4977338;28;20061;-75
2023/03/05 01:54:37;;;;;;;19.70;3.50;;;;;;;-144.73;99.80;54444.66;4977826;28;20038;-75
2023/03/05 01:57:15;;;;;;;22.43;4.30;;;;;;;-144.73;99.86;54452.84;4977341;28;20518;-75
2023/03/05 01:59:43;;;;;;;31.20;5.20;;;;;;;-144.73;99.55;54461.06;4977422;28;20642;-75
2023/03/05 02:02:09;;;;;;;29.07;4.67;;;;;;;-144.73;99.48;54454.91;4977166;28;20499;-75
2023/03/05 02:04:44;;;;;;;32.40;3.70;;;;;;;-144.73;99.10;54448.75;4977875;28;20062;-75
2023/03/05 02:07:10;;;;;;;24.53;4.43;;;;;;;-144.73;99.15;54481.59;4994354;28;20129;-75
2023/03/05 02:09:38;;;;;;;26.83;5.27;;;;;;;-144.73;98.86;54407.69;4976997;28;20026;-75
2023/03/05 02:12:03;;;;;;;28.63;4.93;;;;;;;-144.73;100.00;54430.28;4976722;28;20069;-74
2023/03/05 02:14:29;;;;;;;45.13;4.83;;;;;;;-144.73;100.00;54444.66;4994101;28;20053;-74
2023/03/05 02:16:54;;;;;;;19.57;5.53;;;;;;;-144.73;100.00;54461.06;4994055;28;20049;-74
2023/03/05 02:19:19;;;;;;;20.53;5.53;;;;;;;-144.73;100.00;54452.84;4976892;28;20036;-74
2023/03/05 02:21:47;;;;;;;20.77;4.80;;;;;;;-144.73;100.00;54473.38;4976513;28;20050;-73
2023/03/05 02:24:34;;;;;;;25.43;6.10;;;;;;;-144.73;100.00;54426.16;4976866;28;20026;-75
2023/03/05 02:27:01;;;;;;;24.13;5.23;;;;;;;-144.73;100.00;54452.84;4976276;28;20042;-75
2023/03/05 02:29:29;;;;;;;29.50;5.77;;;;;;;-144.73;100.00;54485.69;4976560;28;20026;-74
2023/03/05 02:31:54;;;;;;;18.77;5.20;;;;;;;-144.73;100.00;54452.84;4976459;28;20499;-74
2023/03/05 02:34:21;;;;;;;26.27;4.97;;;;;;;-144.73;100.00;54473.38;4976454;28;20026;-74
2023/03/05 02:36:46;;;;;;;14.17;4.20;;;;;;;-144.73;100.00;54465.16;4976510;28;20039;-74
2023/03/05 02:39:11;;;;;;;12.10;4.13;;;;;;;-144.73;100.00;54444.66;4976985;28;20026;-73
2023/03/05 02:41:37;;;;;;;14.27;3.60;;;;;;;-144.73;100.00;54440.53;4975981;28;20046;-74
2023/03/05 02:44:02;;;;;;;17.20;3.97;;;;;;;-144.73;100.00;54436.44;4976901;28;20027;-74
2023/03/05 02:46:28;;;;;;;13.27;3.00;;;;;;;-144.73;100.00;54426.16;4992918;28;20042;-73
2023/03/05 02:48:54;;;;;;;9.03;2.80;;;;;;;-144.73;100.00;54432.31;4976355;28;20121;-74
2023/03/05 02:51:19;;;;;;;9.13;2.50;;;;;;;-144.73;100.00;54432.31;4976319;28;20062;-74
2023/03/05 02:53:44;;;;;;;26.80;3.27;;;;;;;-144.73;100.00;54465.16;4976011;28;20027;-73
2023/03/05 02:56:09;;;;;;;17.30;4.10;;;;;;;-144.73;100.00;54436.44;4976279;28;20043;-74
2023/03/05 02:58:35;;;;;;;17.97;3.10;;;;;;;-144.73;100.00;54448.75;4976226;28;20037;-75
2023/03/05 03:01:00;;;;;;;13.33;2.80;;;;;;;-144.73;100.00;54436.44;4981655;28;20038;-75
2023/03/05 03:03:26;;;;;;;20.07;2.97;;;;;;;-144.73;100.00;54436.44;4992557;28;20522;-74
2023/03/05 03:05:51;;;;;;;25.00;3.67;;;;;;;-144.73;100.00;54461.06;4991873;28;20041;-74
2023/03/05 03:08:17;;;;;;;18.77;4.07;;;;;;;-144.73;100.00;54465.16;4993550;28;20038;-77
2023/03/05 03:10:43;;;;;;;20.07;3.80;;;;;;;-144.73;100.00;54485.69;4992244;28;20045;-75
2023/03/05 03:13:08;;;;;;;20.87;4.20;;;;;;;-144.73;100.00;54448.75;4992284;28;20475;-77
2023/03/05 03:15:33;;;;;;;15.97;4.13;;;;;;;-144.73;100.00;54444.66;4993058;28;20487;-74
2023/03/05 03:17:59;;;;;;;20.73;5.10;;;;;;;-144.73;100.00;54461.06;4992580;28;20037;-75
2023/03/05 03:20:24;;;;;;;16.50;4.13;;;;;;;-144.73;100.00;54452.84;4991957;28;20042;-76
2023/03/05 03:22:50;;;;;;;17.37;3.97;;;;;;;-144.73;100.00;54448.75;4992086;28;20029;-75
2023/03/05 03:25:18;;;;;;;19.17;4.33;;;;;;;-144.73;100.00;54493.91;4991896;28;20065;-75
2023/03/05 03:27:44;;;;;;;21.13;4.23;;;;;;;-144.73;100.00;54477.47;4991968;28;20030;-76
2023/03/05 03:30:11;;;;;;;22.17;4.87;;;;;;;-144.73;100.00;54459.00;4991927;28;20088;-75
2023/03/05 03:32:36;;;;;;;19.47;4.17;;;;;;;-144.73;100.00;54407.69;4992714;28;20129;-74
2023/03/05 03:35:02;;;;;;;18.67;4.00;;;;;;;-144.73;100.00;54456.97;4993065;28;20042;-75
2023/03/05 03:37:28;;;;;;;21.50;3.80;;;;;;;-144.73;100.00;54489.81;4991434;28;20046;-75
2023/03/05 03:39:53;;;;;;;15.20;3.80;;;;;;;-144.73;100.00;54456.97;4993250;28;20031;-76
2023/03/05 03:42:20;;;;;;;20.03;3.63;;;;;;;-144.73;100.00;54448.75;4990987;28;20092;-75
2023/03/05 03:44:46;;;;;;;18.73;3.80;;;;;;;-144.73;100.00;54467.22;4991687;28;20129;-75
2023/03/05 03:47:11;;;;;;;20.97;4.07;;;;;;;-144.73;100.00;54456.97;4991257;28;20058;-76
2023/03/05 03:49:37;;;;;;;10.80;3.57;;;;;;;-144.73;100.00;54469.28;5012180;23;20050;-77
2023/03/05 03:52:02;;;;;;;14.27;3.43;;;;;;;-144.73;100.00;54489.81;4991003;28;20050;-77
2023/03/05 03:54:28;;;;;;;17.17;3.73;;;;;;;-144.73;100.00;54456.97;5000143;28;20048;-77
2023/03/05 03:56:53;;;;;;;19.20;4.43;;;;;;;-144.73;100.00;54479.53;4993266;28;20097;-77
2023/03/05 03:59:18;;;;;;;15.20;3.57;;;;;;;-144.73;100.00;54477.47;4991432;28;20034;-77
2023/03/05 04:01:44;;;;;;;19.97;4.03;;;;;;;-144.73;100.00;54467.22;4985472;28;20124;-77
2023/03/05 04:04:11;;;;;;;24.53;4.23;;;;;;;-144.73;100.00;54498.00;4995562;28;20474;-77
2023/03/05 04:06:36;;;;;;;8.90;4.07;;;;;;;-144.73;100.00;54456.97;4998965;28;20048;-77
2023/03/05 04:09:02;;;;;;;27.97;5.77;;;;;;;-144.73;100.00;54461.06;5010413;28;20029;-77
2023/03/05 04:11:27;;;;;;;14.67;3.90;;;;;;;-144.73;100.00;54475.44;4990187;28;20068;-77
2023/03/05 04:13:53;;;;;;;15.53;4.43;;;;;;;-144.73;99.99;54452.84;4996880;28;20057;-77
2023/03/05 04:16:18;;;;;;;25.60;5.37;;;;;;;-144.73;100.00;54452.84;4993658;28;20445;-76
2023/03/05 04:18:44;;;;;;;16.03;4.57;;;;;;;-144.73;100.00;54456.97;4994171;28;20033;-77
2023/03/05 04:21:10;;;;;;;15.50;4.53;;;;;;;-144.73;99.80;54473.38;4985257;28;20045;-77
2023/03/05 04:23:35;;;;;;;17.40;4.43;;;;;;;-144.73;100.00;54456.97;4994254;28;20021;-77
2023/03/05 04:26:01;;;;;;;17.77;4.97;;;;;;;-144.73;100.00;54477.47;4985139;28;20068;-77
2023/03/05 04:28:26;;;;;;;15.40;5.03;;;;;;;-144.73;100.00;54415.91;4994570;28;20482;-76
2023/03/05 04:30:52;;;;;;;12.47;5.00;;;;;;;-144.73;100.00;54461.06;4991609;28;20041;-76
2023/03/05 04:33:18;;;;;;;25.93;7.87;;;;;;;-144.73;100.00;54456.97;4994340;28;20029;-76
2023/03/05 04:35:43;;;;;;;25.03;7.77;;;;;;;-144.73;100.00;54444.66;4999328;28;20037;-76
2023/03/05 04:38:09;;;;;;;24.73;8.20;;;;;;;-144.73;100.00;54411.81;5012575;28;20069;-76
2023/03/05 04:40:35;;;;;;;17.80;6.70;;;;;;;-144.73;100.00;54465.16;4984530;28;20029;-76
2023/03/05 04:43:00;;;;;;;22.43;9.20;;;;;;;-144.73;100.00;54436.44;5010329;28;20088;-76
2023/03/05 04:45:26;;;;;;;26.60;8.50;;;;;;;-144.73;99.81;54477.47;5000781;28;20072;-76
2023/03/05 04:47:51;;;;;;;22.80;9.97;;;;;;;-144.73;100.00;54448.75;5000501;28;20037;-76
2023/03/05 04:50:17;;;;;;;35.37;10.93;;;;;;;-144.73;100.00;54436.44;4992881;28;20041;-76
2023/03/05 04:52:43;;;;;;;20.77;8.87;;;;;;;-144.73;100.00;54417.97;5017517;28;20032;-76
2023/03/05 04:55:11;;;;;;;27.97;8.27;;;;;;;-144.73;100.00;54461.06;4992701;28;20073;-76
2023/03/05 04:57:36;;;;;;;19.23;7.90;;;;;;;-144.73;100.00;54452.84;5004930;28;20832;-76
2023/03/05 05:00:10;;;;;;;18.37;6.90;;;;;;;-144.73;100.00;54444.66;4989968;28;20060;-76
2023/03/05 05:02:36;;;;;;;17.63;6.27;;;;;;;-144.73;100.00;54487.75;4992821;28;20037;-76
2023/03/05 05:05:01;;;;;;;25.90;6.50;;;;;;;-144.73;99.60;54452.84;5009129;28;20029;-76
2023/03/05 05:07:26;;;;;;;19.60;5.87;;;;;;;-144.73;99.59;54452.84;4996605;28;20047;-76
2023/03/05 05:09:52;;;;;;;17.13;5.50;;;;;;;-144.73;99.47;54465.16;4999633;28;20117;-76
2023/03/05 05:12:17;;;;;;;22.23;4.57;;;;;;;-144.73;99.50;54456.97;5007042;28;20045;-76
2023/03/05 05:14:42;;;;;;;27.03;4.40;;;;;;;-144.73;99.75;54454.91;5008327;28;20086;-76
2023/03/05 05:17:08;;;;;;;21.57;4.27;;;;;;;-144.73;99.14;54452.84;4998688;28;20049;-76
2023/03/05 05:19:34;;;;;;;26.70;4.20;;;;;;;-144.73;99.17;54448.75;4997207;28;20045;-75
2023/03/05 05:22:00;;;;;;;18.70;3.90;;;;;;;-144.73;99.05;54465.16;4996536;28;20042;-75
2023/03/05 05:24:25;;;;;;;23.30;4.07;;;;;;;-144.73;99.37;54432.31;5001214;28;20034;-75
2023/03/05 05:26:54;;;;;;;14.60;4.43;;;;;;;-144.73;100.00;54456.97;5003251;28;20037;-75
2023/03/05 05:29:19;;;;;;;23.73;4.03;;;;;;;-144.73;100.00;54485.69;4993446;28;20028;-75
2023/03/05 05:31:45;;;;;;;17.63;3.67;;;;;;;-144.73;100.00;54463.13;4996428;28;20101;-75
2023/03/05 05:34:10;;;;;;;21.70;4.43;;;;;;;-144.73;100.00;54448.75;5004341;28;20072;-75
2023/03/05 05:36:35;;;;;;;17.73;5.03;;;;;;;-144.73;100.00;54444.66;5009299;28;20041;-75
2023/03/05 05:39:01;;;;;;;16.93;4.10;;;;;;;-144.73;100.00;54444.66;5016373;28;20036;-75
2023/03/05 05:41:26;;;;;;;22.03;4.20;;;;;;;-144.73;99.91;54456.97;5017135;28;20044;-75
2023/03/05 05:43:52;;;;;;;15.83;3.40;;;;;;;-144.73;100.00;54469.28;5016443;28;20064;-75
2023/03/05 05:46:19;;;;;;;17.73;3.30;;;;;;;-144.73;100.00;54452.84;5007371;28;20524;-75
2023/03/05 05:48:45;;;;;;;13.13;3.07;;;;;;;-144.73;100.00;54440.53;5002008;28;20038;-75
2023/03/05 05:51:17;;;;;;;14.87;3.33;;;;;;;-144.73;100.00;54432.31;4997113;28;20030;-75
2023/03/05 05:53:42;;;;;;;;;;;;;;;-144.73;99.68;54430.28;4990678;28;20022;-76
2023/03/05 05:56:09;;;;;;;9.90;2.60;;;;;;;-144.73;98.94;54465.16;5014774;28;19924;-75
2023/03/05 05:58:37;;;;;;;15.60;2.77;;;;;;;-144.73;99.46;54473.38;5005299;28;20034;-75
2023/03/05 06:01:10;;;;;;;6.63;3.43;;;;;;;-144.73;99.71;54463.13;4992786;28;20045;-76
2023/03/05 06:03:36;;;;;;;20.00;2.63;;;;;;;-144.73;99.58;54477.47;5022348;28;20076;-75
2023/03/05 06:06:01;;;;;;;16.70;3.43;;;;;;;-144.73;99.30;54485.69;5004004;28;20042;-75
2023/03/05 06:08:26;;;;;;;10.67;3.17;;;;;;;-144.73;99.38;54469.28;4988196;28;20033;-75
2023/03/05 06:10:53;;;;;;;15.93;2.53;;;;;;;-144.73;99.14;54452.84;5007225;28;20038;-75
2023/03/05 06:13:19;;;;;;;19.27;2.63;;;;;;;-144.73;98.33;54461.06;5013639;28;20037;-75
2023/03/05 06:15:44;;;;;;;14.90;2.33;;;;;;;-144.73;97.54;54436.44;5009134;28;20363;-75
2023/03/05 06:18:09;;;;;;;22.03;2.40;;;;;;;-144.73;98.50;54473.38;4998577;28;20466;-75
2023/03/05 06:20:35;;;;;;;18.70;2.23;;;;;;;-144.73;98.33;54442.59;5002980;28;20037;-75
2023/03/05 06:23:00;;;;;;;19.07;2.77;;;;;;;-144.73;97.75;54473.38;5003943;28;20075;-75
2023/03/05 06:25:26;;;;;;;22.77;2.53;;;;;;;-144.73;98.65;54448.75;5003648;28;20030;-75
2023/03/05 06:27:51;;;;;;;12.17;1.83;;;;;;;-144.73;98.56;54456.97;5010634;28;20032;-75
2023/03/05 06:30:16;;;;;;;18.27;2.03;;;;;;;-144.73;98.64;54510.31;4996457;28;20112;-75
2023/03/05 06:32:42;;;;;;;14.07;1.67;;;;;;;-144.73;97.63;54487.75;4997564;28;20116;-76
2023/03/05 06:35:08;;;;;;;16.33;2.07;;;;;;;-144.73;97.98;54489.81;5007139;28;20064;-75
2023/03/05 06:37:33;;;;;;;18.07;2.07;;;;;;;-144.73;97.21;54489.81;5014691;28;20041;-75
2023/03/05 06:39:59;;;;;;;16.57;1.60;;;;;;;-144.73;97.00;54465.16;5001040;28;20034;-75
2023/03/05 06:42:24;;;;;;;7.27;1.40;;;;;;;-144.73;97.09;54444.66;5010484;28;20133;-75
2023/03/05 06:44:50;;;;;;;11.97;1.37;;;;;;;-144.73;97.52;54444.66;5010261;28;20033;-75
2023/03/05 06:47:15;;;;;;;12.20;2.53;;;;;;;-144.73;97.43;54444.66;5014714;28;20038;-75
2023/03/05 06:49:40;;;;;;;14.10;2.20;;;;;;;-144.73;97.24;54469.28;5001002;28;20057;-75
2023/03/05 06:52:08;;;;;;;21.37;2.13;;;;;;;-144.73;97.61;54461.06;4994570;28;20103;-76
2023/03/05 06:54:34;;;;;;;14.67;1.47;;;;;;;-144.73;97.41;54452.84;5010800;28;20108;-76
2023/03/05 06:56:59;;;;;;;11.53;1.30;;;;;;;-144.73;97.04;54428.22;5010356;28;20045;-75
2023/03/05 06:59:25;;;;;;;10.37;1.50;;;;;;;-144.73;96.91;54440.53;4999138;28;20026;-75
2023/03/05 07:01:50;;;;;;;13.43;1.53;;;;;;;-144.73;97.20;54465.16;4994779;28;20130;-75
2023/03/05 07:04:16;;;;;;;11.90;1.53;;;;;;;-144.73;97.61;54432.31;4986795;28;20475;-76
2023/03/05 07:06:42;;;;;;;13.97;1.57;;;;;;;-144.73;97.45;54485.69;4995811;28;20093;-75
2023/03/05 07:09:12;;;;;;;7.87;1.20;;;;;;;-144.73;97.48;54489.81;4990397;28;20095;-75
2023/03/05 07:11:37;;;;;;;9.47;1.07;;;;;;;-144.73;97.54;54424.13;4990567;28;20034;-75
2023/03/05 07:14:03;;;;;;;7.73;2.30;;;;;;;-144.73;96.86;54461.06;5006416;28;20087;-75
2023/03/05 07:16:30;;;;;;;4.63;1.00;;;;;;;-144.73;96.73;54493.91;4990182;28;20045;-75
2023/03/05 07:18:58;;;;;;;10.67;1.27;;;;;;;-144.73;97.11;54436.44;5000005;28;20033;-75
2023/03/05 07:21:29;;;;;;;9.17;1.20;;;;;;;-144.73;96.63;54469.28;5011764;28;20042;-75
2023/03/05 07:23:56;;;;;;;5.07;1.10;;;;;;;-144.73;95.66;54428.22;5002286;28;20049;-75
2023/03/05 07:26:22;;;;;;;13.63;1.13;;;;;;;-144.73;95.93;54448.75;4993122;28;20116;-75
2023/03/05 07:28:48;;;;;;;3.97;1.23;;;;;;;-144.73;96.37;54454.91;4992655;28;20097;-75
2023/03/05 07:31:18;;;;;;;11.33;1.70;;;;;;;-144.73;96.43;54415.91;4992033;28;20157;-75
2023/03/05 07:33:49;;;;;;;15.43;2.23;;;;;;;-144.73;97.28;54411.81;4993894;28;20100;-75
2023/03/05 07:36:15;;;;;;;22.77;2.40;;;;;;;-144.73;96.66;54459.00;5002655;28;20285;-75
2023/03/05 07:38:41;;;;;;;13.73;1.70;;;;;;;-144.73;96.30;54444.66;5017084;28;20013;-75
2023/03/05 07:41:10;;;;;;;7.60;2.13;;;;;;;-144.73;95.63;54428.22;5006520;28;20125;-75
2023/03/05 07:43:36;;;;;;;15.47;2.77;;;;;;;-144.73;96.88;54473.38;5019988;28;20025;-75
2023/03/05 07:46:07;;;;;;;10.13;2.40;;;;;;;-144.73;97.67;54452.84;4998365;28;20026;-75
2023/03/05 07:48:33;;;;;;;19.17;2.55;;;;;;;-144.73;98.53;54481.59;5006163;28;20033;-76
2023/03/05 07:51:04;;;;;;;18.13;2.73;;;;;;;-144.73;98.52;54481.59;4998559;28;20048;-76
2023/03/05 07:53:30;;;;;;;13.43;2.95;;;;;;;-144.73;97.77;54477.47;5013438;28;20025;-76
2023/03/05 07:55:56;;;;;;;9.73;2.70;;;;;;;-144.73;97.46;54432.31;5005239;28;20052;-77
2023/03/05 07:58:21;;;;;;;14.50;1.90;;;;;;;-144.73;98.10;54452.84;5013662;28;20034;-74
2023/03/05 08:00:47;;;;;;;18.80;1.90;;;;;;;-144.73;97.76;54448.75;4993592;28;20034;-74
2023/03/05 08:03:13;;;;;;;15.57;2.97;;;;;;;-144.73;96.32;54477.47;5002408;28;20052;-75
2023/03/05 08:05:39;;;;;;;8.27;1.97;;;;;;;-144.73;94.62;54452.84;5005234;28;20034;-75
2023/03/05 08:08:05;;;;;;;11.93;1.33;;;;;;;-144.73;94.36;54432.31;5007095;28;20034;-76
2023/03/05 08:10:30;;;;;;;12.20;2.33;;;;;;;-144.73;93.12;54465.16;5001571;28;20029;-75
2023/03/05 08:12:56;;;;;;;12.97;1.40;;;;;;;-144.73;94.02;54456.97;4997064;28;20025;-76
2023/03/05 08:15:21;;;;;;;7.90;1.23;;;;;;;-144.73;93.84;54436.44;5019311;28;20060;-75
2023/03/05 08:17:46;;;;;;;8.40;1.60;;;;;;;-144.73;93.19;54424.13;4999397;28;20021;-75
2023/03/05 08:20:12;;;;;;;12.87;2.13;;;;;;;-144.73;93.58;54452.84;4994110;28;20029;-70
2023/03/05 08:22:37;;;;;;;12.40;1.73;;;;;;;-144.73;94.17;54448.75;4992774;28;20077;-70
2023/03/05 08:25:04;;;;;;;14.20;2.10;;;;;;;-144.73;93.90;54444.66;5013337;28;20026;-70
2023/03/05 08:27:31;;;;;;;10.93;2.50;;;;;;;-144.73;92.76;54372.81;4992476;28;20393;-69
2023/03/05 08:29:56;;;;;;;18.90;2.00;;;;;;;-144.73;92.88;54465.16;4995034;28;20052;-68
2023/03/05 08:32:22;;;;;;;8.13;2.43;;;;;;;-144.73;92.07;54485.69;4992543;28;20026;-69
2023/03/05 08:34:47;;;;;;;13.10;2.60;;;;;;;-144.73;91.96;54448.75;4995192;28;20021;-69
2023/03/05 08:37:13;;;;;;;10.70;2.47;;;;;;;-144.73;92.13;54415.91;4995571;28;20037;-73
2023/03/05 08:39:38;;;;;;;15.43;2.70;;;;;;;-144.73;90.47;54424.13;4993728;28;20022;-69
2023/03/05 08:42:04;;;;;;;13.60;2.83;;;;;;;-144.73;89.47;54436.44;5001079;28;20057;-69
2023/03/05 08:44:29;;;;;;;11.47;2.40;;;;;;;-144.73;89.43;54448.75;4984957;28;20049;-71
2023/03/05 08:46:55;;;;;;;15.33;2.20;;;;;;;-144.73;88.37;54407.69;5001324;28;20030;-70
2023/03/05 08:49:24;;;;;;;17.47;2.20;;;;;;;-144.73;88.48;54471.31;5001642;28;20474;-71
2023/03/05 08:51:49;;;;;;;13.33;2.40;;;;;;;-144.73;88.69;54448.75;4994937;28;20038;-71
2023/03/05 08:54:16;;;;;;;14.00;2.17;;;;;;;-144.73;88.29;54479.53;5004765;28;20054;-71
2023/03/05 08:56:41;;;;;;;6.07;1.80;;;;;;;-144.73;86.66;54473.38;5007068;28;20030;-71
2023/03/05 08:59:07;;;;;;;10.37;1.83;;;;;;;-144.73;86.74;54473.38;4999303;28;20394;-70
2023/03/05 09:01:33;;;;;;;9.53;2.03;;;;;;;-144.73;87.16;54452.84;4976471;28;20027;-69
2023/03/05 09:03:59;;;;;;;9.37;1.63;;;;;;;-144.73;87.40;54440.53;4987415;28;20076;-71
2023/03/05 09:06:25;;;;;;;7.05;2.70;;;;;;;-144.73;85.44;54436.44;5000956;28;20083;-73
2023/03/05 09:08:51;;;;;;;20.45;3.08;;;;;;;-144.73;86.35;54444.66;4994444;28;20038;-70
2023/03/05 09:11:16;;;;;;;9.25;1.75;;;;;;;-144.73;83.95;54469.28;4997960;28;20034;-72
2023/03/05 09:13:42;;;;;;;8.70;1.73;;;;;;;-144.73;84.23;54459.00;4999943;28;20551;-69
2023/03/05 09:16:13;;;;;;;7.32;1.80;;;;;;;-144.73;83.86;54452.84;4985476;28;20042;-70
2023/03/05 09:18:39;;;;;;;14.15;2.25;;;;;;;-144.73;83.48;54452.84;4992274;28;20014;-69
2023/03/05 09:21:06;;;;;;;12.67;2.30;;;;;;;-144.73;82.79;54432.31;4998435;28;20039;-70
2023/03/05 09:23:31;;;;;;;12.75;2.10;;;;;;;-144.73;82.31;54504.16;5000052;28;20017;-70
2023/03/05 09:25:57;;;;;;;10.55;2.20;;;;;;;-144.73;81.80;54444.66;4994876;28;20096;-69
2023/03/05 09:28:22;;;;;;;17.73;3.50;;;;;;;-144.73;79.47;54485.69;5002449;28;20029;-70
2023/03/05 09:30:47;;;;;;;13.43;2.50;;;;;;;-144.73;80.39;54502.13;4999871;28;20034;-72
2023/03/05 09:33:13;;;;;;;12.02;1.92;;;;;;;-144.73;80.61;54448.75;5010323;28;20030;-70
2023/03/05 09:35:39;;;;;;;10.05;2.20;;;;;;;-144.73;80.91;54420.00;4989554;28;20041;-70
2023/03/05 09:38:04;;;;;;;12.20;1.70;;;;;;;-144.73;79.12;54461.06;4996576;28;20017;-71
2023/03/05 09:40:53;;;;;;;23.10;3.35;;;;;;;-144.73;78.55;54465.16;5010132;28;20048;-69
2023/03/05 09:43:27;;;;;;;16.73;1.88;;;;;;;-144.73;78.30;54420.00;4993885;28;20061;-69
2023/03/05 09:46:01;;;;;;;12.05;2.05;;;;;;;-144.73;78.23;54436.44;4996023;28;20049;-70
2023/03/05 09:51:23;;;;;;;10.80;3.08;;;;;;;-144.73;80.73;54461.06;5002565;28;20050;-68
2023/03/05 09:54:02;;;;;;;15.20;5.20;;;;;;;-144.73;87.50;54463.13;4992398;28;20057;-68
2023/03/05 09:56:31;;;;;;;13.40;2.87;;;;;;;-144.73;87.90;54489.81;4994285;28;20180;-69
2023/03/05 09:59:04;;;;;;;12.63;2.23;;;;;;;-144.73;87.16;54440.53;5012947;28;20041;-69
2023/03/05 10:01:38;;;;;;;11.03;2.50;;;;;;;-144.73;81.11;54440.53;4994248;28;20469;-69
2023/03/05 10:04:15;;;;;;;16.20;3.03;;;;;;;-144.73;83.31;54473.38;4991686;28;20034;-69
2023/03/05 10:06:53;;;;;;;11.93;1.58;;;;;;;-144.73;82.79;54428.22;4970320;28;20069;-69
2023/03/05 10:09:40;;;;;;;10.97;1.40;;;;;;;-144.73;83.30;54428.22;4973235;28;20037;-68
2023/03/05 10:12:19;;;;;;;16.40;2.33;;;;;;;-144.73;83.66;54440.53;4989212;28;20043;-68
2023/03/05 10:14:45;;;;;;;9.33;2.30;;;;;;;-144.73;83.56;54442.59;4991361;28;20085;-69
2023/03/05 10:17:35;;;;;;;10.07;1.97;;;;;;;-144.73;83.61;54395.38;4973491;28;20046;-69
2023/03/05 10:20:22;;;;;;;8.97;1.67;;;;;;;-144.73;83.94;54450.81;4985126;28;20040;-70
2023/03/05 10:23:23;;;;;;;6.37;2.07;;;;;;;-144.73;85.21;54428.22;4974248;28;20046;-69
2023/03/05 10:26:19;;;;;;;14.13;1.92;;;;;;;-144.73;85.59;54456.97;4986844;28;20493;-68
2023/03/05 10:28:50;;;;;;;11.25;1.98;;;;;;;-144.73;86.86;54461.06;4993055;28;20139;-71
2023/03/05 10:31:23;;;;;;;12.90;2.28;;;;;;;-144.73;87.00;54456.97;4976263;28;20038;-69
2023/03/05 10:34:20;;;;;;;7.18;1.52;;;;;;;-144.73;85.69;54432.31;4964422;28;20031;-69
2023/03/05 10:37:04;;;;;;;9.13;1.85;;;;;;;-144.73;85.09;54477.47;4965231;28;20043;-69
2023/03/05 10:39:38;;;;;;;10.65;1.70;;;;;;;-144.73;82.86;54395.38;4992115;28;20030;-69
2023/03/05 10:42:12;;;;;;;9.30;2.05;;;;;;;-144.73;82.43;54452.84;4968205;28;20504;-70
2023/03/05 10:44:48;;;;;;;18.02;2.35;;;;;;;-144.73;80.21;54415.91;4984815;28;20036;-69
2023/03/05 10:47:41;;;;;;;10.38;1.70;;;;;;;-144.73;79.47;54420.00;4976442;28;20038;-68
2023/03/05 10:50:16;;;;;;;9.50;1.73;;;;;;;-144.73;78.43;54424.13;4976479;28;20117;-71
2023/03/05 10:52:45;;;;;;;11.27;1.77;;;;;;;-144.73;77.19;54442.59;4975038;28;20043;-70
2023/03/05 10:55:16;;;;;;;12.13;2.30;;;;;;;-144.73;77.36;54454.91;4976808;28;20034;-68
2023/03/05 10:57:42;;;;;;;13.85;2.47;;;;;;;-144.73;75.28;54473.38;4987538;28;20085;-68
2023/03/05 11:00:12;;;;;;;14.05;2.53;;;;;;;-144.73;74.30;54448.75;4995793;28;20034;-69
2023/03/05 11:03:07;;;;;;;12.43;2.05;;;;;;;-144.73;76.60;54456.97;4993066;28;20121;-70
2023/03/05 11:05:42;;;;;;;10.45;1.65;;;;;;;-144.73;75.23;54444.66;4992066;28;20054;-69
2023/03/05 11:08:22;;;;;;;9.13;1.73;;;;;;;-144.73;76.10;54481.59;4993280;28;20109;-69
2023/03/05 11:11:02;;;;;;;9.93;1.60;;;;;;;-144.73;76.49;54440.53;4991370;28;20488;-68
2023/03/05 11:13:28;;;;;;;6.38;1.45;;;;;;;-144.73;75.46;54428.22;4990281;28;20157;-69
2023/03/05 11:16:05;;;;;;;8.90;1.70;;;;;;;-144.73;75.67;54456.97;4990821;28;20121;-69